Time;durP1;ratioP1;P1;durP2;ratioP2;P2;SDS_P1;SDS_P2;PMS_P1;PMS_P2;Temp;Humidity;BMP_temperature;BMP_pressure;BME280_temperature;BME280_humidity;BME280_pressure;Samples;Min_cycle;Max_cycle;Signal;HPM_P1;HPM_P2
2024/01/07 00:01:21;;;;;;;6.10;4.30;;;;;;;;;;43454;281;3030409;-32
2024/01/07 00:03:08;;;;;;;6.60;4.60;;;;;;;;;;43441;269;3030816;-32
2024/01/07 00:04:52;;;;;;;6.40;4.30;;;;;;;;;;43459;281;3030283;-32
2024/01/07 00:06:37;;;;;;;6.20;3.90;;;;;;;;;;43458;270;3031057;-32
2024/01/07 00:08:23;;;;;;;6.10;4.00;;;;;;;;;;43443;281;3030838;-32
2024/01/07 00:10:11;;;;;;;6.30;4.30;;;;;;;;;;43458;269;3030623;-32
2024/01/07 00:11:56;;;;;;;6.30;4.20;;;;;;;;;;43659;281;3030174;-32
2024/01/07 00:13:41;;;;;;;6.60;4.70;;;;;;;;;;43442;269;3031145;-32
2024/01/07 00:15:26;;;;;;;6.10;4.10;;;;;;;;;;43451;281;3030260;-32
2024/01/07 00:17:14;;;;;;;6.30;4.10;;;;;;;;;;43439;281;3030698;-32
2024/01/07 00:18:59;;;;;;;5.80;3.80;;;;;;;;;;43409;278;3030473;-31
2024/01/07 00:20:47;;;;;;;6.30;4.10;;;;;;;;;;43430;273;3030887;-32
2024/01/07 00:22:36;;;;;;;6.40;4.20;;;;;;;;;;43413;270;3030831;-32
2024/01/07 00:24:21;;;;;;;6.00;3.90;;;;;;;;;;43845;270;3031353;-32
2024/01/07 00:26:07;;;;;;;6.20;4.10;;;;;;;;;;43469;265;3030784;-32
2024/01/07 00:27:55;;;;;;;6.40;4.00;;;;;;;;;;43466;290;3030840;-32
2024/01/07 00:29:40;;;;;;;6.30;4.30;;;;;;;;;;43543;277;3036703;-32
2024/01/07 00:31:26;;;;;;;6.60;4.30;;;;;;;;;;43464;281;3030490;-32
2024/01/07 00:33:12;;;;;;;6.20;4.10;;;;;;;;;;43465;273;3030756;-32
2024/01/07 00:34:57;;;;;;;7.00;3.90;;;;;;;;;;43468;281;3030776;-32
2024/01/07 00:36:42;;;;;;;6.20;4.40;;;;;;;;;;44046;281;3030636;-32
2024/01/07 00:38:28;;;;;;;6.10;4.00;;;;;;;;;;43411;273;3031369;-32
2024/01/07 00:40:15;;;;;;;6.00;4.00;;;;;;;;;;43431;281;3030691;-31
2024/01/07 00:42:00;;;;;;;6.20;4.10;;;;;;;;;;43501;281;3031986;-32
2024/01/07 00:43:47;;;;;;;6.10;4.20;;;;;;;;;;43462;285;3030849;-32
2024/01/07 00:45:33;;;;;;;5.90;3.90;;;;;;;;;;43424;281;3033380;-32
2024/01/07 00:47:18;;;;;;;5.60;3.90;;;;;;;;;;43433;269;3030300;-32
2024/01/07 00:49:03;;;;;;;6.60;4.20;;;;;;;;;;43423;277;3031273;-32
2024/01/07 00:50:50;;;;;;;6.50;4.50;;;;;;;;;;43444;273;3031282;-32
2024/01/07 00:52:36;;;;;;;6.20;4.30;;;;;;;;;;43454;281;3030993;-32
2024/01/07 00:54:23;;;;;;;5.80;4.00;;;;;;;;;;43428;273;3030889;-32
2024/01/07 00:56:10;;;;;;;6.50;4.40;;;;;;;;;;43421;281;3030711;-32
2024/01/07 00:57:55;;;;;;;5.90;4.00;;;;;;;;;;43450;273;3030709;-32
2024/01/07 00:59:39;;;;;;;6.10;4.20;;;;;;;;;;43434;285;3030517;-32
2024/01/07 01:01:25;;;;;;;6.30;4.00;;;;;;;;;;43456;281;3030183;-32
2024/01/07 01:03:11;;;;;;;6.70;4.10;;;;;;;;;;43464;290;3031445;-32
2024/01/07 01:04:56;;;;;;;6.10;4.00;;;;;;;;;;43459;277;3030940;-32
2024/01/07 01:06:41;;;;;;;5.90;3.80;;;;;;;;;;43481;277;3033214;-32
2024/01/07 01:08:28;;;;;;;6.10;4.00;;;;;;;;;;43431;269;3031025;-32
2024/01/07 01:10:16;;;;;;;6.20;4.00;;;;;;;;;;43426;270;3031103;-32
2024/01/07 01:12:06;;;;;;;5.60;3.90;;;;;;;;;;43458;265;3031952;-32
2024/01/07 01:13:51;;;;;;;5.50;3.70;;;;;;;;;;43419;285;3031449;-32
2024/01/07 01:15:40;;;;;;;6.50;4.40;;;;;;;;;;43478;281;3030944;-32
2024/01/07 01:17:25;;;;;;;5.90;4.00;;;;;;;;;;43515;269;3030098;-32
2024/01/07 01:19:12;;;;;;;5.70;3.80;;;;;;;;;;43416;281;3030589;-32
2024/01/07 01:20:57;;;;;;;6.10;4.10;;;;;;;;;;43444;273;3037031;-32
2024/01/07 01:22:43;;;;;;;5.90;3.80;;;;;;;;;;43427;269;3030515;-32
2024/01/07 01:24:28;;;;;;;6.20;4.10;;;;;;;;;;43429;269;3030955;-32
2024/01/07 01:26:16;;;;;;;5.70;4.10;;;;;;;;;;43457;273;3031040;-32
2024/01/07 01:28:01;;;;;;;6.20;4.00;;;;;;;;;;43426;281;3030862;-32
2024/01/07 01:29:46;;;;;;;6.10;3.80;;;;;;;;;;43419;281;3030709;-32
2024/01/07 01:31:32;;;;;;;6.20;4.10;;;;;;;;;;43438;281;3031039;-32
2024/01/07 01:33:18;;;;;;;6.50;3.80;;;;;;;;;;43452;281;3031389;-32
2024/01/07 01:35:07;;;;;;;5.60;3.90;;;;;;;;;;43443;273;3030566;-32
2024/01/07 01:36:52;;;;;;;5.80;3.90;;;;;;;;;;43566;280;3030885;-32
2024/01/07 01:38:37;;;;;;;5.80;3.70;;;;;;;;;;43445;281;3030565;-32
2024/01/07 01:40:25;;;;;;;5.40;3.40;;;;;;;;;;43440;281;3030714;-32
2024/01/07 01:42:10;;;;;;;5.50;3.40;;;;;;;;;;43444;281;3030994;-32
2024/01/07 01:44:01;;;;;;;5.70;3.70;;;;;;;;;;43407;281;3032262;-32
2024/01/07 01:45:46;;;;;;;5.10;3.50;;;;;;;;;;43602;289;3030932;-32
2024/01/07 01:47:34;;;;;;;5.50;3.70;;;;;;;;;;43454;281;3031061;-32
2024/01/07 01:49:23;;;;;;;5.60;3.60;;;;;;;;;;43443;290;3030462;-32
2024/01/07 01:51:11;;;;;;;5.70;3.50;;;;;;;;;;43431;273;3030502;-32
2024/01/07 01:52:58;;;;;;;5.90;3.70;;;;;;;;;;43431;269;3030268;-32
2024/01/07 01:54:47;;;;;;;5.90;3.60;;;;;;;;;;43434;281;3031395;-32
2024/01/07 01:56:35;;;;;;;5.50;3.40;;;;;;;;;;43419;273;3030740;-32
2024/01/07 01:58:23;;;;;;;5.40;3.50;;;;;;;;;;43441;273;3030468;-32
2024/01/07 02:00:14;;;;;;;5.50;3.50;;;;;;;;;;43391;281;3031257;-32
2024/01/07 02:01:59;;;;;;;5.40;3.40;;;;;;;;;;44149;269;3038191;-32
2024/01/07 02:03:43;;;;;;;5.30;3.50;;;;;;;;;;44114;290;3030203;-32
2024/01/07 02:05:28;;;;;;;5.70;3.80;;;;;;;;;;44084;281;3030660;-32
2024/01/07 02:07:13;;;;;;;5.20;3.30;;;;;;;;;;43437;281;3030349;-32
2024/01/07 02:08:59;;;;;;;5.40;3.60;;;;;;;;;;43433;281;3030593;-32
2024/01/07 02:10:44;;;;;;;5.30;3.50;;;;;;;;;;43414;273;3030934;-32
2024/01/07 02:12:30;;;;;;;5.50;3.40;;;;;;;;;;43437;281;3030908;-32
2024/01/07 02:14:15;;;;;;;5.40;3.20;;;;;;;;;;43438;269;3031007;-32
2024/01/07 02:16:05;;;;;;;5.80;3.50;;;;;;;;;;43427;281;3030819;-32
2024/01/07 02:17:49;;;;;;;5.90;3.30;;;;;;;;;;44135;277;3031192;-32
2024/01/07 02:19:34;;;;;;;5.20;3.30;;;;;;;;;;44147;277;3029936;-32
2024/01/07 02:21:19;;;;;;;5.20;3.30;;;;;;;;;;44157;281;3029101;-32
2024/01/07 02:23:04;;;;;;;5.10;3.10;;;;;;;;;;44135;277;3030536;-32
2024/01/07 02:24:48;;;;;;;5.50;3.40;;;;;;;;;;44147;277;3031244;-32
2024/01/07 02:26:33;;;;;;;5.40;3.40;;;;;;;;;;44113;280;3030519;-32
2024/01/07 02:28:18;;;;;;;5.40;3.70;;;;;;;;;;44118;281;3031934;-32
2024/01/07 02:30:03;;;;;;;5.30;3.30;;;;;;;;;;44133;281;3030395;-32
2024/01/07 02:31:48;;;;;;;5.50;3.50;;;;;;;;;;44113;273;3030670;-32
2024/01/07 02:33:33;;;;;;;5.20;3.30;;;;;;;;;;43725;277;3030893;-32
2024/01/07 02:35:19;;;;;;;4.80;3.00;;;;;;;;;;43444;277;3031136;-32
2024/01/07 02:37:04;;;;;;;5.80;3.60;;;;;;;;;;44147;281;3030151;-32
2024/01/07 02:38:49;;;;;;;5.40;3.50;;;;;;;;;;44179;285;3031850;-32
2024/01/07 02:40:33;;;;;;;5.50;3.30;;;;;;;;;;44129;281;3030214;-32
2024/01/07 02:42:18;;;;;;;5.80;3.40;;;;;;;;;;44107;277;3030920;-32
2024/01/07 02:44:02;;;;;;;5.80;3.20;;;;;;;;;;44135;281;3030086;-32
2024/01/07 02:45:47;;;;;;;5.40;3.20;;;;;;;;;;44116;280;3030843;-32
2024/01/07 02:47:32;;;;;;;5.00;3.10;;;;;;;;;;44142;277;3030673;-32
2024/01/07 02:49:17;;;;;;;6.30;3.40;;;;;;;;;;44158;270;3030739;-32
2024/01/07 02:51:03;;;;;;;5.30;3.40;;;;;;;;;;44157;277;3030702;-32
2024/01/07 02:52:48;;;;;;;5.60;3.30;;;;;;;;;;44136;281;3031006;-32
2024/01/07 02:54:32;;;;;;;5.40;3.50;;;;;;;;;;43462;273;3030875;-32
2024/01/07 02:56:19;;;;;;;5.20;3.10;;;;;;;;;;44112;281;3030667;-32
2024/01/07 02:58:04;;;;;;;5.40;3.40;;;;;;;;;;43440;281;3030834;-32
2024/01/07 02:59:51;;;;;;;5.30;3.00;;;;;;;;;;43443;273;3031009;-32
2024/01/07 03:01:40;;;;;;;5.90;3.20;;;;;;;;;;44126;277;3030166;-32
2024/01/07 03:03:25;;;;;;;5.30;3.30;;;;;;;;;;44139;270;3036704;-32
2024/01/07 03:05:11;;;;;;;4.80;3.10;;;;;;;;;;44129;273;3031568;-32
2024/01/07 03:06:56;;;;;;;5.30;3.20;;;;;;;;;;44142;273;3030657;-32
2024/01/07 03:08:40;;;;;;;5.50;3.50;;;;;;;;;;44114;276;3030895;-32
2024/01/07 03:10:25;;;;;;;4.70;2.90;;;;;;;;;;44108;281;3031135;-32
2024/01/07 03:12:10;;;;;;;5.40;3.30;;;;;;;;;;44122;281;3030633;-32
2024/01/07 03:13:55;;;;;;;5.30;3.30;;;;;;;;;;44152;273;3031144;-32
2024/01/07 03:15:39;;;;;;;5.00;3.10;;;;;;;;;;44132;273;3030971;-32
2024/01/07 03:17:24;;;;;;;4.90;3.20;;;;;;;;;;44133;281;3030358;-32
2024/01/07 03:19:09;;;;;;;5.20;3.10;;;;;;;;;;44128;280;3030830;-32
2024/01/07 03:20:53;;;;;;;5.20;3.20;;;;;;;;;;44001;290;3032108;-32
2024/01/07 03:22:40;;;;;;;5.10;3.20;;;;;;;;;;43399;265;3031243;-32
2024/01/07 03:24:27;;;;;;;5.10;3.00;;;;;;;;;;43440;281;3031375;-32
2024/01/07 03:26:12;;;;;;;5.20;3.40;;;;;;;;;;43439;290;3030192;-32
2024/01/07 03:27:57;;;;;;;5.50;3.30;;;;;;;;;;43427;289;3031487;-32
2024/01/07 03:29:43;;;;;;;5.10;3.20;;;;;;;;;;43433;270;3031775;-32
2024/01/07 03:31:28;;;;;;;5.20;3.30;;;;;;;;;;43424;281;3030829;-33
2024/01/07 03:33:13;;;;;;;5.10;3.10;;;;;;;;;;44133;277;3030924;-32
2024/01/07 03:34:58;;;;;;;5.50;3.30;;;;;;;;;;44140;281;3031175;-32
2024/01/07 03:36:43;;;;;;;5.00;3.00;;;;;;;;;;43736;269;3031037;-32
2024/01/07 03:38:28;;;;;;;5.40;3.30;;;;;;;;;;43423;281;3031104;-32
2024/01/07 03:40:15;;;;;;;5.40;3.30;;;;;;;;;;43428;281;3030481;-32
2024/01/07 03:42:00;;;;;;;5.20;3.30;;;;;;;;;;43447;281;3030444;-32
2024/01/07 03:43:48;;;;;;;5.30;3.30;;;;;;;;;;43399;273;3030510;-32
2024/01/07 03:45:33;;;;;;;5.10;3.10;;;;;;;;;;43433;281;3030908;-32
2024/01/07 03:47:17;;;;;;;5.10;3.10;;;;;;;;;;43455;281;3030915;-32
2024/01/07 03:49:02;;;;;;;4.90;3.10;;;;;;;;;;43422;277;3030656;-32
2024/01/07 03:50:47;;;;;;;5.50;3.20;;;;;;;;;;43430;281;3031065;-32
2024/01/07 03:52:36;;;;;;;5.20;3.00;;;;;;;;;;43454;269;3030624;-32
2024/01/07 03:54:21;;;;;;;6.00;3.30;;;;;;;;;;43416;281;3038294;-32
2024/01/07 03:56:09;;;;;;;4.80;2.90;;;;;;;;;;43587;281;3031265;-32
2024/01/07 03:57:54;;;;;;;5.60;3.40;;;;;;;;;;44156;277;3030582;-32
2024/01/07 03:59:39;;;;;;;5.20;3.00;;;;;;;;;;44148;289;3030422;-32
2024/01/07 04:01:23;;;;;;;5.40;3.20;;;;;;;;;;44124;273;3031171;-32
2024/01/07 04:03:09;;;;;;;5.60;3.10;;;;;;;;;;44122;281;3030027;-32
2024/01/07 04:04:54;;;;;;;5.20;3.20;;;;;;;;;;44161;270;3037197;-32
2024/01/07 04:06:39;;;;;;;5.20;3.10;;;;;;;;;;44134;273;3030393;-32
2024/01/07 04:08:25;;;;;;;5.00;3.00;;;;;;;;;;44129;281;3030728;-33
2024/01/07 04:10:11;;;;;;;5.70;3.20;;;;;;;;;;43794;277;3030977;-33
2024/01/07 04:11:57;;;;;;;5.70;3.40;;;;;;;;;;43749;281;3030415;-33
2024/01/07 04:13:42;;;;;;;5.50;3.00;;;;;;;;;;43405;281;3031817;-33
2024/01/07 04:15:27;;;;;;;5.20;2.90;;;;;;;;;;43440;281;3031325;-33
2024/01/07 04:17:13;;;;;;;6.00;3.30;;;;;;;;;;43648;281;3030684;-33
2024/01/07 04:18:58;;;;;;;5.40;3.20;;;;;;;;;;43442;281;3030190;-32
2024/01/07 04:20:43;;;;;;;4.60;2.90;;;;;;;;;;43433;281;3031347;-32
2024/01/07 04:22:29;;;;;;;5.50;3.10;;;;;;;;;;43417;277;3032173;-32
2024/01/07 04:24:14;;;;;;;5.40;3.00;;;;;;;;;;43409;290;3031126;-32
2024/01/07 04:25:58;;;;;;;5.20;2.80;;;;;;;;;;43429;269;3030614;-32
2024/01/07 04:27:45;;;;;;;5.60;3.00;;;;;;;;;;43426;273;3031389;-32
2024/01/07 04:29:33;;;;;;;5.40;3.00;;;;;;;;;;43444;281;3031419;-32
2024/01/07 04:31:18;;;;;;;5.70;3.20;;;;;;;;;;43416;281;3033090;-32
2024/01/07 04:33:04;;;;;;;6.40;3.30;;;;;;;;;;43410;281;3031414;-32
2024/01/07 04:34:49;;;;;;;5.50;3.10;;;;;;;;;;44125;281;3030000;-32
2024/01/07 04:36:34;;;;;;;6.00;3.10;;;;;;;;;;44100;281;3031860;-32
2024/01/07 04:38:19;;;;;;;5.20;3.20;;;;;;;;;;44053;289;3030349;-32
2024/01/07 04:40:08;;;;;;;5.70;3.10;;;;;;;;;;43436;281;3030957;-32
2024/01/07 04:41:52;;;;;;;5.80;3.10;;;;;;;;;;44138;277;3030348;-33
2024/01/07 04:43:37;;;;;;;5.10;3.30;;;;;;;;;;44028;282;3030473;-33
2024/01/07 04:45:27;;;;;;;4.90;2.80;;;;;;;;;;43441;277;3031279;-32
2024/01/07 04:47:30;;;;;;;4.80;3.00;;;;;;;;;;43420;281;3031259;-32
2024/01/07 04:49:14;;;;;;;5.50;3.00;;;;;;;;;;43663;290;3031168;-32
2024/01/07 04:51:00;;;;;;;6.10;2.90;;;;;;;;;;43449;277;3030747;-32
2024/01/07 04:52:44;;;;;;;5.20;3.10;;;;;;;;;;43450;269;3030693;-32
2024/01/07 04:54:29;;;;;;;5.10;3.10;;;;;;;;;;43402;265;3030658;-32
2024/01/07 04:56:15;;;;;;;4.80;2.70;;;;;;;;;;43438;265;3030492;-32
2024/01/07 04:58:03;;;;;;;5.80;3.00;;;;;;;;;;43427;281;3030453;-32
2024/01/07 04:59:49;;;;;;;5.80;3.00;;;;;;;;;;43421;281;3031043;-32
2024/01/07 05:01:36;;;;;;;5.10;3.00;;;;;;;;;;43449;273;3032058;-32
2024/01/07 05:03:22;;;;;;;5.30;3.20;;;;;;;;;;43449;273;3031147;-32
2024/01/07 05:05:10;;;;;;;5.10;2.70;;;;;;;;;;43424;265;3031145;-32
2024/01/07 05:06:54;;;;;;;5.50;3.00;;;;;;;;;;44141;277;3031224;-32
2024/01/07 05:08:41;;;;;;;5.40;3.00;;;;;;;;;;44168;281;3030385;-32
2024/01/07 05:10:26;;;;;;;5.10;2.70;;;;;;;;;;44123;281;3031859;-32
2024/01/07 05:12:11;;;;;;;6.40;2.90;;;;;;;;;;44098;281;3030236;-32
2024/01/07 05:13:56;;;;;;;4.60;2.70;;;;;;;;;;43448;285;3031391;-32
2024/01/07 05:15:42;;;;;;;4.70;2.70;;;;;;;;;;43420;281;3030727;-32
2024/01/07 05:17:27;;;;;;;5.60;3.10;;;;;;;;;;43423;273;3031074;-32
2024/01/07 05:19:13;;;;;;;5.10;2.80;;;;;;;;;;43437;281;3030743;-32
2024/01/07 05:20:58;;;;;;;5.60;3.10;;;;;;;;;;43394;269;3030293;-32
2024/01/07 05:22:44;;;;;;;5.30;3.10;;;;;;;;;;43436;273;3029371;-32
2024/01/07 05:24:28;;;;;;;5.10;2.90;;;;;;;;;;43434;281;3030901;-32
2024/01/07 05:26:18;;;;;;;5.60;2.60;;;;;;;;;;43407;269;3030864;-32
2024/01/07 05:28:06;;;;;;;5.70;2.80;;;;;;;;;;43448;281;3031178;-32
2024/01/07 05:29:51;;;;;;;5.30;2.90;;;;;;;;;;44196;277;3030955;-32
2024/01/07 05:31:35;;;;;;;4.90;2.90;;;;;;;;;;44155;277;3030982;-32
2024/01/07 05:33:20;;;;;;;5.00;2.70;;;;;;;;;;44155;277;3031214;-32
2024/01/07 05:35:06;;;;;;;5.40;3.00;;;;;;;;;;44125;280;3030004;-32
2024/01/07 05:36:50;;;;;;;5.10;2.90;;;;;;;;;;44102;281;3037847;-32
2024/01/07 05:38:35;;;;;;;5.10;2.80;;;;;;;;;;44144;273;3030500;-32
2024/01/07 05:40:20;;;;;;;5.40;2.70;;;;;;;;;;44139;281;3031056;-32
2024/01/07 05:42:06;;;;;;;4.90;2.80;;;;;;;;;;43595;281;3030745;-32
2024/01/07 05:43:54;;;;;;;5.40;3.00;;;;;;;;;;43582;273;3030726;-32
2024/01/07 05:45:38;;;;;;;5.00;2.80;;;;;;;;;;43423;273;3030865;-32
2024/01/07 05:47:23;;;;;;;4.60;2.50;;;;;;;;;;43417;281;3038489;-32
2024/01/07 05:49:08;;;;;;;5.20;2.80;;;;;;;;;;43434;281;3030734;-32
2024/01/07 05:50:54;;;;;;;5.10;2.80;;;;;;;;;;43458;281;3030610;-32
2024/01/07 05:52:39;;;;;;;4.80;2.80;;;;;;;;;;43419;281;3030582;-32
2024/01/07 05:54:25;;;;;;;5.20;2.70;;;;;;;;;;43442;277;3030788;-32
2024/01/07 05:56:13;;;;;;;5.30;2.80;;;;;;;;;;43424;273;3031360;-32
2024/01/07 05:58:00;;;;;;;5.40;3.00;;;;;;;;;;43450;273;3030859;-32
2024/01/07 05:59:50;;;;;;;5.00;2.80;;;;;;;;;;43434;277;3029604;-32
2024/01/07 06:01:39;;;;;;;5.10;2.70;;;;;;;;;;43440;270;3030614;-32
2024/01/07 06:03:23;;;;;;;4.90;2.80;;;;;;;;;;43458;277;3031614;-32
2024/01/07 06:05:10;;;;;;;5.70;3.10;;;;;;;;;;43445;273;3032080;-32
2024/01/07 06:06:54;;;;;;;4.80;2.60;;;;;;;;;;43890;281;3030950;-32
2024/01/07 06:08:42;;;;;;;5.40;2.60;;;;;;;;;;43437;281;3030605;-32
2024/01/07 06:10:27;;;;;;;5.00;2.50;;;;;;;;;;43459;281;3030835;-32
2024/01/07 06:12:12;;;;;;;5.50;2.80;;;;;;;;;;43457;281;3030720;-32
2024/01/07 06:13:59;;;;;;;5.20;2.60;;;;;;;;;;43466;289;3030751;-32
2024/01/07 06:15:46;;;;;;;5.00;2.80;;;;;;;;;;43461;281;3030635;-32
2024/01/07 06:17:31;;;;;;;5.30;2.80;;;;;;;;;;43450;273;3031630;-32
2024/01/07 06:19:18;;;;;;;6.00;2.90;;;;;;;;;;43454;269;3031986;-32
2024/01/07 06:21:03;;;;;;;5.10;2.90;;;;;;;;;;43467;281;3031167;-32
2024/01/07 06:22:48;;;;;;;5.40;3.00;;;;;;;;;;43425;273;3031750;-32
2024/01/07 06:24:32;;;;;;;5.10;2.80;;;;;;;;;;43456;281;3030602;-32
2024/01/07 06:26:20;;;;;;;5.00;2.80;;;;;;;;;;43447;269;3031293;-32
2024/01/07 06:28:06;;;;;;;4.70;2.50;;;;;;;;;;43417;290;3037091;-32
2024/01/07 06:29:51;;;;;;;5.20;2.90;;;;;;;;;;43501;273;3030694;-31
2024/01/07 06:31:36;;;;;;;4.80;2.80;;;;;;;;;;43477;269;3030345;-31
2024/01/07 06:33:21;;;;;;;5.60;2.90;;;;;;;;;;43450;281;3031232;-31
2024/01/07 06:35:09;;;;;;;4.70;2.70;;;;;;;;;;43475;265;3030223;-31
2024/01/07 06:36:53;;;;;;;4.80;2.70;;;;;;;;;;43487;269;3030465;-31
2024/01/07 06:38:38;;;;;;;4.90;2.70;;;;;;;;;;43437;281;3037077;-32
2024/01/07 06:40:26;;;;;;;4.90;2.70;;;;;;;;;;43450;281;3031382;-32
2024/01/07 06:42:11;;;;;;;4.80;2.50;;;;;;;;;;43451;273;3031076;-32
2024/01/07 06:43:57;;;;;;;4.90;2.60;;;;;;;;;;43439;269;3030162;-32
2024/01/07 06:45:46;;;;;;;5.20;2.70;;;;;;;;;;43531;277;3031369;-32
2024/01/07 06:47:36;;;;;;;5.00;2.60;;;;;;;;;;43280;271;3031162;-32
2024/01/07 06:49:20;;;;;;;5.30;2.80;;;;;;;;;;44085;290;3030792;-32
2024/01/07 06:51:06;;;;;;;4.60;2.50;;;;;;;;;;43815;277;3031038;-33
2024/01/07 06:52:52;;;;;;;5.60;3.10;;;;;;;;;;43889;277;3031176;-32
2024/01/07 06:54:40;;;;;;;5.20;2.60;;;;;;;;;;43465;289;3031669;-32
2024/01/07 06:56:25;;;;;;;4.30;2.40;;;;;;;;;;43900;269;3030702;-32
2024/01/07 06:58:09;;;;;;;4.90;2.60;;;;;;;;;;43432;281;3029779;-32
2024/01/07 06:59:56;;;;;;;4.70;2.60;;;;;;;;;;43444;273;3030804;-32
2024/01/07 07:01:42;;;;;;;4.80;2.60;;;;;;;;;;43426;281;3031554;-32
2024/01/07 07:03:30;;;;;;;4.90;2.60;;;;;;;;;;43440;273;3031003;-32
2024/01/07 07:05:18;;;;;;;4.80;2.50;;;;;;;;;;43448;273;3031367;-32
2024/01/07 07:07:06;;;;;;;4.70;2.60;;;;;;;;;;43436;281;3030743;-32
2024/01/07 07:08:51;;;;;;;4.50;2.40;;;;;;;;;;44121;273;3031288;-33
2024/01/07 07:10:36;;;;;;;4.70;2.40;;;;;;;;;;44103;281;3030524;-33
2024/01/07 07:12:24;;;;;;;4.20;2.40;;;;;;;;;;43443;281;3031147;-33
2024/01/07 07:14:12;;;;;;;4.70;2.50;;;;;;;;;;43416;281;3030830;-33
2024/01/07 07:16:01;;;;;;;4.50;2.40;;;;;;;;;;43449;281;3030585;-33
2024/01/07 07:17:48;;;;;;;4.80;2.50;;;;;;;;;;43403;290;3032172;-33
2024/01/07 07:19:33;;;;;;;4.80;2.70;;;;;;;;;;43325;275;3038508;-33
2024/01/07 07:21:18;;;;;;;5.00;2.70;;;;;;;;;;43403;281;3030149;-33
2024/01/07 07:23:06;;;;;;;4.80;2.70;;;;;;;;;;43426;290;3031958;-33
2024/01/07 07:24:50;;;;;;;4.80;2.60;;;;;;;;;;43898;281;3031971;-33
2024/01/07 07:26:40;;;;;;;4.70;2.50;;;;;;;;;;43215;273;3030439;-33
2024/01/07 07:28:25;;;;;;;5.30;2.70;;;;;;;;;;43693;269;3030467;-32
2024/01/07 07:30:11;;;;;;;4.40;2.70;;;;;;;;;;43445;277;3030274;-32
2024/01/07 07:31:56;;;;;;;4.60;2.50;;;;;;;;;;43479;273;3031416;-33
2024/01/07 07:33:43;;;;;;;4.60;2.40;;;;;;;;;;43443;273;3031026;-33
2024/01/07 07:35:29;;;;;;;5.20;2.90;;;;;;;;;;43418;273;3030355;-33
2024/01/07 07:37:15;;;;;;;4.80;2.40;;;;;;;;;;43422;265;3030093;-33
2024/01/07 07:39:04;;;;;;;4.50;2.40;;;;;;;;;;43423;281;3030483;-33
2024/01/07 07:40:52;;;;;;;4.70;2.50;;;;;;;;;;43425;277;3031465;-33
2024/01/07 07:42:38;;;;;;;4.80;2.60;;;;;;;;;;43429;281;3031364;-33
2024/01/07 07:44:24;;;;;;;4.60;2.40;;;;;;;;;;43443;290;3030171;-33
2024/01/07 07:46:08;;;;;;;4.20;2.40;;;;;;;;;;43439;277;3030817;-33
2024/01/07 07:47:54;;;;;;;4.30;2.50;;;;;;;;;;43417;273;3030815;-33
2024/01/07 07:49:40;;;;;;;4.70;2.30;;;;;;;;;;43406;281;3031449;-32
2024/01/07 07:51:26;;;;;;;4.60;2.30;;;;;;;;;;43472;273;3030672;-32
2024/01/07 07:53:11;;;;;;;4.40;2.60;;;;;;;;;;43463;281;3030661;-32
2024/01/07 07:54:56;;;;;;;4.80;2.50;;;;;;;;;;43438;281;3030523;-32
2024/01/07 07:56:40;;;;;;;5.40;2.70;;;;;;;;;;43433;281;3031117;-32
2024/01/07 07:58:25;;;;;;;4.40;2.50;;;;;;;;;;43432;273;3030855;-32
2024/01/07 08:00:12;;;;;;;4.50;2.50;;;;;;;;;;43397;281;3031830;-32
2024/01/07 08:02:00;;;;;;;4.30;2.30;;;;;;;;;;43571;281;3030790;-32
2024/01/07 08:03:46;;;;;;;4.20;2.10;;;;;;;;;;43427;281;3030612;-32
2024/01/07 08:05:31;;;;;;;4.80;2.50;;;;;;;;;;43432;281;3030880;-32
2024/01/07 08:07:16;;;;;;;4.40;2.60;;;;;;;;;;43431;281;3030402;-31
2024/01/07 08:09:02;;;;;;;4.10;2.30;;;;;;;;;;43436;281;3030928;-31
2024/01/07 08:10:47;;;;;;;5.00;2.50;;;;;;;;;;43440;283;3037194;-32
2024/01/07 08:12:32;;;;;;;4.80;2.80;;;;;;;;;;43408;281;3030397;-32
2024/01/07 08:14:18;;;;;;;4.80;2.30;;;;;;;;;;43444;273;3031183;-32
2024/01/07 08:16:10;;;;;;;4.50;2.40;;;;;;;;;;44123;281;3030718;-32
2024/01/07 08:17:55;;;;;;;4.30;2.30;;;;;;;;;;43466;273;3030598;-33
2024/01/07 08:19:44;;;;;;;4.60;2.50;;;;;;;;;;44142;277;3031794;-33
2024/01/07 08:21:29;;;;;;;4.70;2.40;;;;;;;;;;44068;281;3030821;-33
2024/01/07 08:23:14;;;;;;;4.40;2.50;;;;;;;;;;43438;273;3029630;-33
2024/01/07 08:24:58;;;;;;;4.40;2.40;;;;;;;;;;43430;281;3030750;-33
2024/01/07 08:26:45;;;;;;;4.50;2.40;;;;;;;;;;43955;281;3030425;-34
2024/01/07 08:28:29;;;;;;;4.30;2.40;;;;;;;;;;43428;281;3031052;-31
2024/01/07 08:30:17;;;;;;;4.90;2.60;;;;;;;;;;43401;281;3033370;-31
2024/01/07 08:32:03;;;;;;;4.30;2.50;;;;;;;;;;43417;281;3030728;-32
2024/01/07 08:33:50;;;;;;;4.40;2.30;;;;;;;;;;43424;277;3030559;-32
2024/01/07 08:35:38;;;;;;;4.60;2.30;;;;;;;;;;43445;281;3030626;-32
2024/01/07 08:37:23;;;;;;;4.40;2.50;;;;;;;;;;43428;281;3030394;-32
2024/01/07 08:39:08;;;;;;;5.00;2.50;;;;;;;;;;43407;281;3031325;-32
2024/01/07 08:40:55;;;;;;;5.20;2.70;;;;;;;;;;43426;269;3030520;-32
2024/01/07 08:42:40;;;;;;;4.80;2.60;;;;;;;;;;43427;269;3030625;-32
2024/01/07 08:44:25;;;;;;;5.00;2.70;;;;;;;;;;43436;281;3030481;-32
2024/01/07 08:46:10;;;;;;;4.50;2.30;;;;;;;;;;43432;288;3031136;-32
2024/01/07 08:47:55;;;;;;;4.30;2.50;;;;;;;;;;43434;281;3031294;-32
2024/01/07 08:49:44;;;;;;;4.20;2.00;;;;;;;;;;43432;289;3031625;-32
2024/01/07 08:51:31;;;;;;;4.10;2.30;;;;;;;;;;43435;281;3037856;-32
2024/01/07 08:53:18;;;;;;;4.70;2.30;;;;;;;;;;43442;273;3031205;-32
2024/01/07 08:55:06;;;;;;;4.00;2.30;;;;;;;;;;43418;281;3030934;-32
2024/01/07 08:56:51;;;;;;;4.50;2.30;;;;;;;;;;44118;281;3030491;-32
2024/01/07 08:58:37;;;;;;;4.60;2.30;;;;;;;;;;43604;280;3030816;-32
2024/01/07 09:00:25;;;;;;;4.50;2.30;;;;;;;;;;44112;281;3030627;-32
2024/01/07 09:02:11;;;;;;;5.00;2.60;;;;;;;;;;44168;269;3037176;-32
2024/01/07 09:03:55;;;;;;;4.60;2.30;;;;;;;;;;44142;273;3030667;-32
2024/01/07 09:05:40;;;;;;;4.40;2.40;;;;;;;;;;44145;281;3031379;-32
2024/01/07 09:07:25;;;;;;;4.70;2.20;;;;;;;;;;44139;277;3030779;-32
2024/01/07 09:09:10;;;;;;;4.20;2.40;;;;;;;;;;43825;281;3031614;-32
2024/01/07 09:10:55;;;;;;;4.20;2.20;;;;;;;;;;43408;281;3031004;-32
2024/01/07 09:12:40;;;;;;;4.40;2.40;;;;;;;;;;43431;265;3030863;-32
2024/01/07 09:14:27;;;;;;;4.60;2.40;;;;;;;;;;43432;277;3030689;-32
2024/01/07 09:16:12;;;;;;;4.10;2.40;;;;;;;;;;43431;281;3030440;-32
2024/01/07 09:18:04;;;;;;;4.40;2.30;;;;;;;;;;43460;289;3030868;-32
2024/01/07 09:19:51;;;;;;;4.10;2.40;;;;;;;;;;43837;289;3030485;-32
2024/01/07 09:21:38;;;;;;;4.40;2.50;;;;;;;;;;43408;281;3030683;-32
2024/01/07 09:23:26;;;;;;;4.20;2.30;;;;;;;;;;43429;273;3030775;-32
2024/01/07 09:25:12;;;;;;;4.30;2.30;;;;;;;;;;43417;269;3031975;-32
2024/01/07 09:26:57;;;;;;;4.80;2.80;;;;;;;;;;44020;281;3031563;-32
2024/01/07 09:28:45;;;;;;;4.50;2.50;;;;;;;;;;43434;269;3030715;-32
2024/01/07 09:30:30;;;;;;;4.40;2.30;;;;;;;;;;43773;269;3030474;-32
2024/01/07 09:32:17;;;;;;;5.20;2.40;;;;;;;;;;43420;281;3031319;-32
2024/01/07 09:34:02;;;;;;;4.60;2.40;;;;;;;;;;43422;277;3032212;-32
2024/01/07 09:35:49;;;;;;;4.50;2.30;;;;;;;;;;43425;281;3032177;-32
2024/01/07 09:37:35;;;;;;;4.30;2.40;;;;;;;;;;44120;273;3030605;-32
2024/01/07 09:39:25;;;;;;;4.40;2.40;;;;;;;;;;44014;281;3031011;-32
2024/01/07 09:41:10;;;;;;;4.00;2.30;;;;;;;;;;43432;273;3030322;-32
2024/01/07 09:42:59;;;;;;;4.80;2.70;;;;;;;;;;43402;269;3036627;-32
2024/01/07 09:44:45;;;;;;;4.20;2.50;;;;;;;;;;43416;273;3030844;-32
2024/01/07 09:46:35;;;;;;;4.20;2.50;;;;;;;;;;43442;281;3030424;-32
2024/01/07 09:48:20;;;;;;;4.70;2.50;;;;;;;;;;43426;273;3031685;-32
2024/01/07 09:50:09;;;;;;;4.90;2.90;;;;;;;;;;43438;273;3031187;-32
2024/01/07 09:52:00;;;;;;;6.10;3.30;;;;;;;;;;43711;281;3030987;-32
2024/01/07 09:53:48;;;;;;;6.00;3.50;;;;;;;;;;43438;281;3030675;-32
2024/01/07 09:55:42;;;;;;;5.90;3.50;;;;;;;;;;43460;273;3031391;-32
2024/01/07 09:57:27;;;;;;;6.90;3.90;;;;;;;;;;43965;277;3030750;-32
2024/01/07 09:59:14;;;;;;;7.10;4.30;;;;;;;;;;43486;281;3030258;-32
2024/01/07 10:00:59;;;;;;;7.00;4.10;;;;;;;;;;43416;277;3030943;-32
2024/01/07 10:02:45;;;;;;;7.00;4.40;;;;;;;;;;43404;273;3030604;-32
2024/01/07 10:04:30;;;;;;;7.10;4.30;;;;;;;;;;43536;273;3030760;-32
2024/01/07 10:06:15;;;;;;;6.50;4.50;;;;;;;;;;43456;281;3030626;-32
2024/01/07 10:08:03;;;;;;;6.50;4.10;;;;;;;;;;43439;269;3031497;-32
2024/01/07 10:09:53;;;;;;;7.30;4.50;;;;;;;;;;43435;281;3029429;-32
2024/01/07 10:11:40;;;;;;;6.50;4.30;;;;;;;;;;43453;281;3030956;-32
2024/01/07 10:13:27;;;;;;;6.70;4.40;;;;;;;;;;43400;273;3030561;-32
2024/01/07 10:15:13;;;;;;;7.30;4.50;;;;;;;;;;43443;281;3030544;-32
2024/01/07 10:16:58;;;;;;;6.20;4.30;;;;;;;;;;44145;269;3030981;-32
2024/01/07 10:18:43;;;;;;;6.60;4.00;;;;;;;;;;44112;273;3030833;-32
2024/01/07 10:20:28;;;;;;;7.10;4.20;;;;;;;;;;44127;273;3031317;-32
2024/01/07 10:22:15;;;;;;;6.60;4.20;;;;;;;;;;43572;281;3031133;-32
2024/01/07 10:24:15;;;;;;;7.10;4.30;;;;;;;;;;43395;281;3039016;-32
2024/01/07 10:26:02;;;;;;;7.00;4.70;;;;;;;;;;43494;281;3030795;-32
2024/01/07 10:27:59;;;;;;;6.60;4.50;;;;;;;;;;43408;281;3031122;-32